Time;durP1;ratioP1;P1;durP2;ratioP2;P2;SDS_P1;SDS_P2;PMS_P1;PMS_P2;Temp;Humidity;BMP_temperature;BMP_pressure;BME280_temperature;BME280_humidity;BME280_pressure;Samples;Min_cycle;Max_cycle;Signal;HPM_P1;HPM_P2
2022/09/16 00:00:59;;;;;;;6.90;1.60;;;13.10;1.00;;;;;;6080651;23;20404;-83
2022/09/16 00:03:27;;;;;;;9.83;1.90;;;13.10;1.00;;;;;;6077430;23;20433;-83
2022/09/16 00:06:17;;;;;;;7.57;1.47;;;13.10;1.00;;;;;;6078832;23;20768;-83
2022/09/16 00:08:44;;;;;;;7.97;1.53;;;13.00;1.00;;;;;;6080225;23;20433;-83
2022/09/16 00:11:13;;;;;;;6.57;1.57;;;13.00;1.00;;;;;;6079600;23;20485;-83
2022/09/16 00:13:41;;;;;;;6.63;1.30;;;13.00;1.00;;;;;;6067692;23;20434;-83
2022/09/16 00:16:10;;;;;;;6.40;1.73;;;13.00;1.00;;;;;;6067415;23;21184;-83
2022/09/16 00:18:37;;;;;;;7.33;1.60;;;12.90;1.00;;;;;;6075830;23;20457;-83
2022/09/16 00:21:08;;;;;;;7.77;1.70;;;12.90;1.00;;;;;;6064774;23;20839;-83
2022/09/16 00:23:36;;;;;;;6.80;1.17;;;12.90;1.00;;;;;;6080551;23;20525;-82
2022/09/16 00:26:04;;;;;;;10.83;5.30;;;12.90;1.00;;;;;;6080616;23;20445;-82
2022/09/16 00:28:33;;;;;;;7.50;1.53;;;12.80;1.00;;;;;;6080661;23;20524;-83
2022/09/16 00:31:03;;;;;;;6.50;1.47;;;12.80;1.00;;;;;;6080418;23;20405;-83
2022/09/16 00:33:43;;;;;;;6.40;1.20;;;12.80;1.00;;;;;;6079244;23;20434;-82
2022/09/16 00:36:16;;;;;;;6.50;1.80;;;12.80;1.00;;;;;;6048697;23;20914;-83
2022/09/16 00:38:44;;;;;;;7.40;1.87;;;12.80;1.00;;;;;;6077249;23;20923;-83
2022/09/16 00:41:16;;;;;;;6.90;1.50;;;12.80;1.00;;;;;;6078974;23;20401;-83
2022/09/16 00:43:54;;;;;;;8.00;2.30;;;12.80;1.00;;;;;;6077777;23;20409;-83
2022/09/16 00:46:30;;;;;;;8.87;1.60;;;12.70;1.00;;;;;;6062941;23;20985;-83
2022/09/16 00:49:05;;;;;;;6.23;1.23;;;12.70;1.00;;;;;;6078068;23;20520;-83
2022/09/16 00:51:36;;;;;;;6.60;1.63;;;12.70;1.00;;;;;;6077210;23;20423;-83
2022/09/16 00:54:08;;;;;;;7.77;1.73;;;12.70;1.00;;;;;;6065859;23;20425;-83
2022/09/16 00:56:37;;;;;;;7.20;1.50;;;12.60;1.00;;;;;;6076629;23;20873;-82
2022/09/16 00:59:08;;;;;;;8.97;1.90;;;12.60;1.00;;;;;;6076576;23;20465;-82
2022/09/16 01:01:35;;;;;;;6.67;2.00;;;12.60;1.00;;;;;;6075162;23;20400;-84
2022/09/16 01:04:11;;;;;;;6.80;1.70;;;12.50;1.00;;;;;;6075815;23;20402;-83
2022/09/16 01:06:44;;;;;;;7.37;1.30;;;12.50;1.00;;;;;;6046798;23;20378;-83
2022/09/16 01:09:12;;;;;;;6.20;1.40;;;12.50;1.00;;;;;;6074620;23;20397;-82
2022/09/16 01:11:38;;;;;;;7.17;1.70;;;12.50;1.00;;;;;;6074294;23;20449;-83
2022/09/16 01:16:59;;;;;;;7.23;1.30;;;12.50;1.00;;;;;;6075219;23;20382;-84
2022/09/16 01:19:53;;;;;;;8.67;1.80;;;12.40;1.00;;;;;;6076730;23;20416;-83
2022/09/16 01:22:40;;;;;;;9.00;1.70;;;12.40;1.00;;;;;;6073644;23;20850;-83
2022/09/16 01:25:18;;;;;;;6.53;1.63;;;12.40;1.00;;;;;;6073211;23;20437;-83
2022/09/16 01:28:03;;;;;;;8.00;1.83;;;12.40;1.00;;;;;;6072892;23;20425;-83
2022/09/16 01:30:59;;;;;;;7.03;2.43;;;12.40;1.00;;;;;;6072530;23;20519;-83
2022/09/16 01:33:40;;;;;;;7.50;1.87;;;12.30;1.00;;;;;;6075672;23;20453;-82
2022/09/16 01:36:17;;;;;;;7.60;1.50;;;12.30;1.00;;;;;;6074869;23;20422;-84
2022/09/16 01:39:03;;;;;;;9.23;1.87;;;12.30;1.00;;;;;;6075136;23;20394;-84
2022/09/16 01:41:40;;;;;;;8.50;1.60;;;12.30;1.00;;;;;;6075485;23;20412;-83
2022/09/16 01:44:17;;;;;;;8.10;1.70;;;12.30;1.00;;;;;;6076590;23;20469;-83
2022/09/16 01:46:49;;;;;;;8.03;1.60;;;12.20;1.00;;;;;;6076435;23;20501;-84
2022/09/16 01:49:22;;;;;;;9.07;1.87;;;12.20;1.00;;;;;;6061070;23;20393;-82
2022/09/16 01:52:04;;;;;;;8.77;1.90;;;12.20;1.00;;;;;;6059272;23;20827;-83
2022/09/16 01:54:39;;;;;;;8.00;2.00;;;12.20;1.00;;;;;;6034310;23;20489;-82
2022/09/16 01:57:14;;;;;;;8.63;2.03;;;12.10;1.00;;;;;;6073844;23;20481;-79
2022/09/16 02:00:13;;;;;;;6.90;1.90;;;12.10;1.00;;;;;;6062017;23;20431;-80
2022/09/16 02:05:49;;;;;;;7.47;1.90;;;12.10;1.00;;;;;;6021183;23;20883;-79
2022/09/16 02:08:24;;;;;;;11.13;2.57;;;12.10;1.00;;;;;;6053545;23;20423;-81
2022/09/16 02:11:03;;;;;;;8.33;2.30;;;12.10;1.00;;;;;;6065599;23;20764;-82
2022/09/16 02:13:46;;;;;;;7.77;2.10;;;12.10;1.00;;;;;;6033059;23;20393;-78
2022/09/16 02:16:35;;;;;;;9.37;1.80;;;12.10;1.00;;;;;;6062158;23;20389;-80
2022/09/16 02:19:24;;;;;;;10.37;1.97;;;12.00;1.00;;;;;;6049267;23;21157;-80
2022/09/16 02:24:56;;;;;;;8.50;2.23;;;12.00;1.00;;;;;;6019493;23;20494;-82
2022/09/16 02:27:56;;;;;;;10.10;2.30;;;11.90;1.00;;;;;;6022623;23;20414;-81
2022/09/16 02:30:27;;;;;;;7.97;2.10;;;12.00;1.00;;;;;;6039208;23;20972;-79
2022/09/16 02:33:02;;;;;;;11.20;2.47;;;11.90;1.00;;;;;;6065308;23;20472;-78
2022/09/16 02:35:43;;;;;;;8.73;2.40;;;11.90;1.00;;;;;;6076191;23;20409;-79
2022/09/16 02:38:23;;;;;;;8.67;2.77;;;11.90;1.00;;;;;;6062975;23;20377;-80
2022/09/16 02:40:56;;;;;;;9.97;2.60;;;11.90;1.00;;;;;;6048272;23;20393;-83
2022/09/16 02:43:26;;;;;;;8.90;2.37;;;11.90;1.00;;;;;;6039006;23;21228;-83
2022/09/16 02:46:06;;;;;;;9.93;2.50;;;11.90;1.00;;;;;;6080649;23;20530;-82
2022/09/16 02:48:45;;;;;;;9.90;2.57;;;11.90;1.00;;;;;;6080734;23;20429;-81
2022/09/16 02:51:26;;;;;;;9.23;2.40;;;11.90;1.00;;;;;;6081755;23;20425;-82
2022/09/16 02:53:58;;;;;;;10.47;2.67;;;11.80;1.00;;;;;;6082667;23;20448;-84
2022/09/16 02:56:30;;;;;;;8.17;2.40;;;11.80;1.00;;;;;;6079916;23;20524;-84
2022/09/16 02:58:58;;;;;;;11.30;3.60;;;11.80;1.00;;;;;;6075763;23;20425;-84
2022/09/16 03:01:27;;;;;;;8.90;2.87;;;11.80;1.00;;;;;;6073821;23;20425;-81
2022/09/16 03:03:55;;;;;;;9.00;2.60;;;11.90;1.00;;;;;;6075188;23;20449;-85
2022/09/16 03:06:24;;;;;;;10.17;2.67;;;11.80;1.00;;;;;;6076577;23;21051;-83
2022/09/16 03:08:53;;;;;;;9.10;2.67;;;11.80;1.00;;;;;;6079354;23;20429;-83
2022/09/16 03:11:36;;;;;;;14.23;3.37;;;11.80;1.00;;;;;;6077881;23;20434;-83
2022/09/16 03:14:21;;;;;;;10.67;2.33;;;11.80;1.00;;;;;;6078609;23;20430;-85
2022/09/16 03:16:56;;;;;;;9.67;2.33;;;11.80;1.00;;;;;;6077172;23;20408;-85
2022/09/16 03:19:33;;;;;;;8.80;2.53;;;11.90;1.00;;;;;;6076001;23;20421;-83
2022/09/16 03:22:13;;;;;;;8.73;2.70;;;11.90;1.00;;;;;;6077650;23;20428;-84
2022/09/16 03:24:48;;;;;;;11.47;2.77;;;11.90;1.00;;;;;;6078071;23;20507;-82
2022/09/16 03:27:20;;;;;;;8.43;2.83;;;12.00;1.00;;;;;;6077442;23;21087;-83
2022/09/16 03:29:53;;;;;;;8.33;2.80;;;12.00;1.00;;;;;;6063903;23;20921;-84
2022/09/16 03:32:24;;;;;;;8.77;2.67;;;12.00;1.00;;;;;;6079112;23;20508;-83
2022/09/16 03:34:58;;;;;;;11.73;2.87;;;11.90;1.00;;;;;;6081150;23;20432;-84
2022/09/16 03:37:30;;;;;;;11.47;3.60;;;12.00;1.00;;;;;;6080815;23;20945;-84
2022/09/16 03:40:03;;;;;;;9.40;2.73;;;11.90;1.00;;;;;;6081830;23;20421;-84
2022/09/16 03:42:31;;;;;;;8.87;2.63;;;11.90;1.00;;;;;;6076932;23;21234;-84
2022/09/16 03:44:58;;;;;;;11.00;3.40;;;11.90;1.00;;;;;;6078853;23;20825;-86
2022/09/16 03:47:25;;;;;;;12.30;4.03;;;11.90;1.00;;;;;;6076062;23;20413;-84
2022/09/16 03:49:55;;;;;;;12.03;2.97;;;11.90;1.00;;;;;;6076860;23;20421;-84
2022/09/16 03:52:22;;;;;;;11.70;2.87;;;12.00;1.00;;;;;;6077660;23;20496;-83
2022/09/16 03:54:50;;;;;;;8.50;3.40;;;12.00;1.00;;;;;;6077734;23;20432;-85
2022/09/16 03:57:18;;;;;;;9.23;2.60;;;12.00;1.00;;;;;;6078168;23;20435;-85
2022/09/16 03:59:45;;;;;;;10.67;3.20;;;12.00;1.00;;;;;;6064966;23;20405;-85
2022/09/16 04:02:18;;;;;;;12.10;3.77;;;12.00;1.00;;;;;;6072448;23;20397;-84
2022/09/16 04:04:47;;;;;;;15.20;3.37;;;12.10;1.00;;;;;;6073132;23;20389;-84
2022/09/16 04:07:15;;;;;;;10.47;2.83;;;12.10;1.00;;;;;;6077887;23;20457;-83
2022/09/16 04:09:42;;;;;;;10.80;3.30;;;12.20;1.00;;;;;;6078896;23;20429;-83
2022/09/16 04:12:10;;;;;;;11.10;3.43;;;12.20;1.00;;;;;;6062462;23;20444;-83
2022/09/16 04:14:37;;;;;;;11.23;3.50;;;12.20;1.00;;;;;;6075094;23;20425;-84
2022/09/16 04:17:06;;;;;;;9.60;3.50;;;12.20;1.00;;;;;;6077274;23;21113;-83
2022/09/16 04:19:36;;;;;;;10.20;3.40;;;12.20;1.00;;;;;;6073257;23;20430;-84
2022/09/16 04:22:06;;;;;;;11.63;3.90;;;12.20;1.00;;;;;;6074306;23;20434;-85
2022/09/16 04:24:35;;;;;;;13.43;4.43;;;12.30;1.00;;;;;;6061286;23;20478;-84
2022/09/16 04:27:06;;;;;;;13.83;4.47;;;12.30;1.00;;;;;;6074579;23;20441;-84
2022/09/16 04:29:35;;;;;;;9.57;3.80;;;12.30;1.00;;;;;;6072769;23;20548;-82
2022/09/16 04:32:03;;;;;;;9.20;3.30;;;12.20;1.00;;;;;;6060123;23;20481;-80
2022/09/16 04:34:31;;;;;;;10.83;4.03;;;12.20;1.00;;;;;;6073042;23;20776;-82
2022/09/16 04:36:58;;;;;;;10.50;3.70;;;12.20;1.00;;;;;;6076912;23;20441;-83
2022/09/16 04:39:24;;;;;;;13.60;3.90;;;12.20;1.00;;;;;;6062757;23;20430;-82
2022/09/16 04:41:51;;;;;;;11.60;4.60;;;12.20;1.00;;;;;;6078259;23;20844;-82
2022/09/16 04:44:18;;;;;;;10.40;4.03;;;12.20;1.00;;;;;;6076166;23;21123;-81
2022/09/16 04:46:49;;;;;;;9.87;3.90;;;12.10;1.00;;;;;;6076034;23;20460;-81
2022/09/16 04:49:16;;;;;;;10.53;3.73;;;12.10;1.00;;;;;;6075243;23;20425;-80
2022/09/16 04:51:43;;;;;;;12.10;4.40;;;12.00;1.00;;;;;;6075534;23;20433;-82
2022/09/16 04:54:11;;;;;;;11.30;3.33;;;12.00;1.00;;;;;;6073823;23;20445;-82
2022/09/16 04:56:38;;;;;;;12.10;4.10;;;11.90;1.00;;;;;;6049595;23;20465;-82
2022/09/16 04:59:06;;;;;;;17.00;4.23;;;11.90;1.00;;;;;;6076262;23;20397;-82
2022/09/16 05:01:35;;;;;;;10.43;4.43;;;11.90;1.00;;;;;;6071996;23;20413;-83
2022/09/16 05:04:06;;;;;;;15.77;3.97;;;11.90;1.00;;;;;;6075046;23;20401;-80
2022/09/16 05:06:34;;;;;;;9.30;3.43;;;11.90;1.00;;;;;;6072170;23;20430;-78
2022/09/16 05:09:03;;;;;;;10.27;3.30;;;12.00;1.00;;;;;;6071920;23;20426;-79
2022/09/16 05:11:35;;;;;;;12.63;3.03;;;12.00;1.00;;;;;;6061308;23;20418;-81
2022/09/16 05:14:04;;;;;;;14.63;4.50;;;12.00;1.00;;;;;;6075590;23;20449;-78
2022/09/16 05:16:35;;;;;;;12.60;3.63;;;12.00;1.00;;;;;;6076629;23;20433;-83
2022/09/16 05:19:05;;;;;;;10.90;3.23;;;11.90;1.00;;;;;;6080134;23;20417;-82
2022/09/16 05:21:34;;;;;;;10.10;3.13;;;11.90;1.00;;;;;;6078926;23;20971;-81
2022/09/16 05:24:02;;;;;;;12.30;4.40;;;12.00;1.00;;;;;;6080501;23;20433;-82
2022/09/16 05:26:34;;;;;;;10.10;3.27;;;12.00;1.00;;;;;;6078761;23;20434;-83
2022/09/16 05:29:08;;;;;;;9.60;3.00;;;12.00;1.00;;;;;;6081827;23;20405;-82
2022/09/16 05:31:39;;;;;;;13.73;6.30;;;12.00;1.00;;;;;;6078334;23;20397;-83
2022/09/16 05:34:12;;;;;;;11.80;2.80;;;12.00;1.00;;;;;;6081040;23;20426;-83
2022/09/16 05:36:42;;;;;;;11.43;3.03;;;11.90;1.00;;;;;;6056165;23;20789;-84
2022/09/16 05:39:10;;;;;;;11.57;3.10;;;12.00;1.00;;;;;;6080392;23;20432;-84
2022/09/16 05:41:37;;;;;;;9.00;2.57;;;12.10;1.00;;;;;;6082031;23;20481;-82
2022/09/16 05:44:06;;;;;;;10.83;3.17;;;12.20;1.00;;;;;;6082134;23;20952;-83
2022/09/16 05:46:40;;;;;;;8.07;2.60;;;12.30;1.00;;;;;;6080926;23;20445;-83
2022/09/16 05:49:09;;;;;;;9.20;2.60;;;12.30;1.00;;;;;;6084095;23;20830;-83
2022/09/16 05:51:37;;;;;;;17.23;7.50;;;12.40;1.00;;;;;;6078910;23;20419;-83
2022/09/16 05:54:04;;;;;;;9.60;2.50;;;12.50;1.00;;;;;;6081305;23;20460;-84
2022/09/16 05:56:32;;;;;;;13.20;4.33;;;12.50;1.00;;;;;;6078006;23;20460;-82
2022/09/16 05:59:02;;;;;;;10.07;2.47;;;12.50;1.00;;;;;;6081415;23;20429;-84
2022/09/16 06:01:34;;;;;;;10.10;2.70;;;12.50;1.00;;;;;;6075246;23;20401;-83
2022/09/16 06:04:04;;;;;;;12.87;3.53;;;12.50;1.00;;;;;;6079391;23;20465;-83
2022/09/16 06:06:34;;;;;;;7.67;2.40;;;12.60;1.00;;;;;;6076960;23;20469;-83
2022/09/16 06:09:05;;;;;;;9.43;2.93;;;12.60;1.00;;;;;;6052547;23;20480;-83
2022/09/16 06:11:36;;;;;;;8.90;2.23;;;12.70;1.00;;;;;;6076707;23;20412;-83
2022/09/16 06:14:04;;;;;;;10.50;2.80;;;12.80;1.00;;;;;;6073869;23;20449;-83
2022/09/16 06:16:32;;;;;;;11.03;3.10;;;12.70;1.00;;;;;;6051929;23;20412;-82
2022/09/16 06:19:00;;;;;;;11.90;2.40;;;12.70;1.00;;;;;;6076582;23;20413;-82
2022/09/16 06:21:27;;;;;;;10.20;3.20;;;12.80;1.00;;;;;;6073592;23;20457;-79
2022/09/16 06:23:56;;;;;;;9.27;2.87;;;12.80;1.00;;;;;;6070577;23;21004;-82
2022/09/16 06:26:24;;;;;;;9.37;2.57;;;12.90;1.00;;;;;;6072756;23;20441;-81
2022/09/16 06:28:56;;;;;;;13.23;3.83;;;12.90;1.00;;;;;;6075520;23;21194;-80
2022/09/16 06:31:25;;;;;;;7.40;2.60;;;13.00;1.00;;;;;;6073907;23;20424;-78
2022/09/16 06:33:52;;;;;;;8.43;2.80;;;13.10;1.00;;;;;;6076528;23;20426;-83
2022/09/16 06:36:22;;;;;;;10.40;2.80;;;13.00;1.00;;;;;;6059662;23;20440;-83
2022/09/16 06:38:50;;;;;;;11.00;3.40;;;13.00;1.00;;;;;;6066561;23;20442;-82
2022/09/16 06:41:22;;;;;;;8.60;2.90;;;13.00;1.00;;;;;;6075441;23;20429;-82
2022/09/16 06:43:50;;;;;;;11.27;3.07;;;13.00;1.00;;;;;;6072793;23;20970;-82
2022/09/16 06:46:19;;;;;;;8.13;2.80;;;13.00;1.00;;;;;;6075401;23;21188;-81
2022/09/16 06:48:49;;;;;;;7.97;2.97;;;13.10;1.00;;;;;;6062617;23;20445;-81
2022/09/16 06:51:17;;;;;;;7.50;2.90;;;13.10;1.00;;;;;;6058648;23;20489;-85
2022/09/16 06:53:45;;;;;;;10.23;3.83;;;13.20;1.00;;;;;;6057897;23;21222;-82
2022/09/16 06:56:16;;;;;;;8.13;3.00;;;13.30;1.00;;;;;;6059555;23;20445;-81
2022/09/16 06:58:49;;;;;;;8.53;2.90;;;13.30;1.00;;;;;;6073506;23;20424;-82
2022/09/16 07:01:17;;;;;;;10.43;3.00;;;13.40;1.00;;;;;;6071622;23;20418;-82
2022/09/16 07:03:46;;;;;;;10.70;3.60;;;13.40;1.00;;;;;;6067464;23;20401;-78
2022/09/16 07:06:14;;;;;;;8.10;2.73;;;13.50;1.00;;;;;;6069872;23;20441;-78
2022/09/16 07:08:42;;;;;;;10.43;3.37;;;13.40;1.00;;;;;;6070049;23;20418;-79
2022/09/16 07:11:11;;;;;;;8.27;3.10;;;13.40;1.00;;;;;;6068895;23;20469;-80
2022/09/16 07:13:39;;;;;;;11.00;3.90;;;13.50;1.00;;;;;;6068629;23;20930;-80
2022/09/16 07:16:08;;;;;;;13.13;3.00;;;13.60;1.00;;;;;;6067210;23;20437;-80
2022/09/16 07:18:36;;;;;;;10.93;2.90;;;13.70;1.00;;;;;;6067308;23;20406;-79
2022/09/16 07:21:03;;;;;;;9.60;3.00;;;13.90;1.00;;;;;;6070161;23;20519;-82
2022/09/16 07:23:31;;;;;;;9.70;2.80;;;14.00;1.00;;;;;;6056489;23;20441;-83
2022/09/16 07:26:06;;;;;;;9.60;2.70;;;14.00;1.00;;;;;;6072947;23;20445;-84
2022/09/16 07:28:34;;;;;;;8.27;3.00;;;14.00;1.00;;;;;;6076119;23;21200;-83
2022/09/16 07:31:02;;;;;;;7.90;2.70;;;14.00;1.00;;;;;;6074065;23;20421;-83
2022/09/16 07:33:48;;;;;;;14.67;4.10;;;14.00;1.00;;;;;;6041709;23;20432;-83
2022/09/16 07:36:26;;;;;;;9.70;3.77;;;13.90;1.00;;;;;;6043906;23;20498;-83
2022/09/16 07:38:57;;;;;;;8.27;3.00;;;13.90;1.00;;;;;;6030908;23;20417;-83
2022/09/16 07:41:28;;;;;;;7.77;3.00;;;13.90;1.00;;;;;;6017735;23;20477;-83
2022/09/16 07:44:17;;;;;;;10.80;3.37;;;14.00;1.00;;;;;;6032738;23;20468;-84
2022/09/16 07:46:46;;;;;;;9.20;3.00;;;14.20;1.00;;;;;;6017904;23;20442;-83
2022/09/16 07:49:17;;;;;;;7.33;2.40;;;14.50;1.00;;;;;;6012169;23;20454;-84
2022/09/16 07:51:47;;;;;;;8.33;2.67;;;14.60;1.00;;;;;;6023386;23;20581;-84
2022/09/16 07:54:26;;;;;;;7.37;2.40;;;14.90;1.00;;;;;;6032562;23;20458;-83
2022/09/16 07:57:04;;;;;;;8.60;2.70;;;14.90;1.00;;;;;;6005232;23;21055;-84
2022/09/16 07:59:46;;;;;;;11.87;2.77;;;14.90;1.00;;;;;;6039186;23;20509;-83
2022/09/16 08:02:16;;;;;;;10.67;2.40;;;14.80;1.00;;;;;;6055231;23;20457;-83
2022/09/16 08:05:06;;;;;;;9.20;2.60;;;14.90;1.00;;;;;;6014046;23;20442;-83
2022/09/16 08:07:36;;;;;;;8.90;2.00;;;15.10;1.00;;;;;;5962721;23;20484;-83
2022/09/16 08:10:09;;;;;;;8.90;1.70;;;15.20;1.00;;;;;;5963069;23;20511;-82
2022/09/16 08:12:36;;;;;;;10.80;2.00;;;15.20;1.00;;;;;;6027775;23;20523;-82
2022/09/16 08:15:08;;;;;;;6.63;2.30;;;15.10;1.00;;;;;;6044810;23;20530;-83
2022/09/16 08:17:48;;;;;;;;;;;;;;;;;;;;;
2022/09/16 08:20:25;;;;;;;7.70;1.90;;;15.50;1.00;;;;;;6028803;23;42188;-81
2022/09/16 08:23:06;;;;;;;8.50;1.70;;;15.60;1.00;;;;;;6055697;23;20504;-83
2022/09/16 08:25:36;;;;;;;9.83;2.33;;;15.60;1.00;;;;;;6041279;23;21350;-83
2022/09/16 08:28:16;;;;;;;7.40;1.90;;;15.60;1.00;;;;;;6039234;23;20444;-83
2022/09/16 08:30:51;;;;;;;8.60;1.80;;;15.70;1.00;;;;;;6012065;23;22272;-84
2022/09/16 08:33:20;;;;;;;9.03;2.10;;;15.80;1.00;;;;;;6026650;23;20451;-80
2022/09/16 08:35:58;;;;;;;13.20;2.00;;;16.00;1.00;;;;;;6071630;23;21205;-81
2022/09/16 08:38:27;;;;;;;9.17;2.13;;;16.20;1.00;;;;;;6070537;23;20496;-83
2022/09/16 08:41:24;;;;;;;7.20;1.97;;;16.30;1.00;;;;;;6071835;23;20783;-82
2022/09/16 08:43:59;;;;;;;11.73;2.57;;;16.20;1.00;;;;;;6073077;23;20413;-84
2022/09/16 08:46:35;;;;;;;8.13;2.10;;;16.30;1.00;;;;;;6053149;23;20413;-83
2022/09/16 08:49:15;;;;;;;8.20;2.67;;;16.50;1.00;;;;;;6074842;23;20415;-84
2022/09/16 08:51:45;;;;;;;7.00;1.63;;;16.80;1.00;;;;;;6070771;23;20406;-82
2022/09/16 08:54:24;;;;;;;8.87;2.20;;;16.90;1.00;;;;;;6056167;23;20469;-82
2022/09/16 08:56:58;;;;;;;6.20;1.80;;;16.90;1.00;;;;;;6071243;23;20422;-81
2022/09/16 08:59:33;;;;;;;6.87;1.63;;;16.90;1.00;;;;;;6068881;23;20433;-81
2022/09/16 09:02:22;;;;;;;6.77;1.73;;;17.00;1.00;;;;;;6070584;23;20477;-80
2022/09/16 09:04:51;;;;;;;8.20;1.70;;;17.10;1.00;;;;;;6071939;23;20426;-84
2022/09/16 09:07:27;;;;;;;10.87;2.37;;;17.00;1.00;;;;;;6069625;23;20806;-80
2022/09/16 09:10:02;;;;;;;6.33;1.73;;;16.70;1.00;;;;;;6071301;23;20468;-82
2022/09/16 09:12:37;;;;;;;6.13;1.80;;;16.60;1.00;;;;;;6068398;23;20429;-83
2022/09/16 09:15:23;;;;;;;8.57;2.20;;;17.30;1.00;;;;;;6069940;23;20449;-81
2022/09/16 09:18:06;;;;;;;6.30;1.73;;;18.20;1.00;;;;;;6070126;23;20920;-80
2022/09/16 09:20:45;;;;;;;8.23;1.60;;;18.10;1.00;;;;;;6072050;23;20453;-80
2022/09/16 09:23:45;;;;;;;8.70;1.50;;;18.20;1.00;;;;;;6069505;23;20445;-83
2022/09/16 09:26:20;;;;;;;8.13;1.83;;;18.60;1.00;;;;;;6063916;23;20445;-80
2022/09/16 09:29:03;;;;;;;7.07;2.13;;;18.50;1.00;;;;;;6056143;23;20417;-81
2022/09/16 09:31:40;;;;;;;8.53;1.73;;;18.20;1.00;;;;;;6070464;23;20493;-81
2022/09/16 09:34:18;;;;;;;7.03;1.80;;;18.60;1.00;;;;;;6073323;23;20987;-80
2022/09/16 09:37:05;;;;;;;9.57;1.20;;;19.60;1.00;;;;;;6070589;23;20421;-80
2022/09/16 09:39:47;;;;;;;9.27;1.70;;;20.90;1.00;;;;;;6073571;23;20448;-81
2022/09/16 09:42:20;;;;;;;7.10;1.50;;;22.20;1.00;;;;;;6072993;23;20532;-82
2022/09/16 09:44:52;;;;;;;7.40;1.90;;;23.30;1.00;;;;;;6056429;23;21205;-80
2022/09/16 09:47:25;;;;;;;6.73;1.47;;;24.40;1.00;;;;;;6073270;23;20443;-80
2022/09/16 09:49:56;;;;;;;12.60;2.20;;;24.60;1.00;;;;;;6072896;23;20434;-79
2022/09/16 09:52:30;;;;;;;7.87;1.57;;;24.20;1.00;;;;;;6048636;23;20607;-80
2022/09/16 09:55:18;;;;;;;6.73;1.57;;;24.90;1.00;;;;;;6076493;23;20908;-80
2022/09/16 09:57:59;;;;;;;6.93;2.00;;;25.30;1.00;;;;;;6059322;23;20394;-79
2022/09/16 10:00:26;;;;;;;8.13;1.70;;;25.20;1.00;;;;;;6072466;23;20420;-83
2022/09/16 10:03:04;;;;;;;4.80;1.40;;;26.40;1.00;;;;;;6075909;23;20438;-82
2022/09/16 10:05:32;;;;;;;6.53;1.53;;;26.40;1.00;;;;;;6072175;23;20393;-80
2022/09/16 10:08:05;;;;;;;6.27;1.70;;;26.20;1.00;;;;;;6057580;23;20421;-79
2022/09/16 10:10:36;;;;;;;4.30;1.20;;;26.40;1.00;;;;;;6070649;23;20421;-80
2022/09/16 10:13:11;;;;;;;5.23;1.93;;;25.90;1.00;;;;;;6060866;23;20437;-79
2022/09/16 10:15:39;;;;;;;6.73;1.80;;;24.80;1.00;;;;;;6074611;23;20413;-80
2022/09/16 10:18:19;;;;;;;6.70;1.73;;;23.60;1.00;;;;;;6075884;23;21167;-81
2022/09/16 10:20:59;;;;;;;6.03;1.17;;;23.20;1.00;;;;;;6074712;23;20478;-80
2022/09/16 10:23:26;;;;;;;7.67;2.23;;;22.80;1.00;;;;;;6072444;23;21103;-80
2022/09/16 10:26:19;;;;;;;7.10;2.00;;;22.00;1.00;;;;;;6048952;23;20450;-80
2022/09/16 10:28:58;;;;;;;6.60;1.47;;;20.70;1.00;;;;;;6045323;23;20460;-81
2022/09/16 10:31:35;;;;;;;7.07;2.03;;;20.70;1.00;;;;;;6058412;23;20453;-80
2022/09/16 10:34:12;;;;;;;6.43;1.70;;;20.40;1.00;;;;;;6074887;23;20508;-80
2022/09/16 10:36:39;;;;;;;6.97;2.10;;;21.30;1.00;;;;;;6062982;23;20429;-81
2022/09/16 10:39:23;;;;;;;7.90;1.77;;;22.80;1.00;;;;;;6076544;23;20425;-80
2022/09/16 10:41:52;;;;;;;5.20;1.80;;;22.40;1.00;;;;;;6075527;23;20420;-79
2022/09/16 10:44:24;;;;;;;6.60;1.70;;;22.40;1.00;;;;;;6075489;23;20434;-81
2022/09/16 10:46:53;;;;;;;6.87;1.60;;;23.80;1.00;;;;;;6073846;23;20429;-85
2022/09/16 10:49:27;;;;;;;5.60;1.60;;;24.00;1.00;;;;;;6077618;23;20544;-84
2022/09/16 10:52:14;;;;;;;5.47;1.37;;;24.20;1.00;;;;;;6063228;23;20448;-83
2022/09/16 10:54:49;;;;;;;6.30;1.57;;;25.50;1.00;;;;;;6073395;23;20433;-83
2022/09/16 10:57:32;;;;;;;6.67;1.77;;;26.00;1.00;;;;;;6081001;23;21237;-83
2022/09/16 11:00:11;;;;;;;9.80;4.00;;;25.60;1.00;;;;;;6047312;23;20433;-81
2022/09/16 11:03:07;;;;;;;6.37;1.33;;;26.20;1.00;;;;;;6067412;23;20390;-82
2022/09/16 11:05:46;;;;;;;5.47;1.60;;;28.10;1.00;;;;;;6029567;23;20509;-83
2022/09/16 11:08:22;;;;;;;9.50;1.63;;;29.30;1.00;;;;;;6081656;23;20493;-84
2022/09/16 11:11:05;;;;;;;6.70;1.53;;;29.60;1.00;;;;;;6068740;23;20397;-83
2022/09/16 11:13:43;;;;;;;5.20;1.80;;;29.90;1.00;;;;;;6082352;23;20409;-82
2022/09/16 11:16:26;;;;;;;5.97;1.53;;;30.50;1.00;;;;;;6082887;23;20723;-84
2022/09/16 11:19:03;;;;;;;4.73;1.40;;;31.60;1.00;;;;;;6082966;23;20541;-82
2022/09/16 11:21:54;;;;;;;5.17;1.30;;;31.60;1.00;;;;;;6083649;23;20436;-82
2022/09/16 11:24:49;;;;;;;5.10;1.63;;;29.50;1.00;;;;;;6082674;23;20390;-84
2022/09/16 11:27:25;;;;;;;6.33;1.67;;;26.20;1.00;;;;;;6070424;23;20980;-81
2022/09/16 11:30:04;;;;;;;5.03;1.33;;;24.20;1.00;;;;;;6083710;23;20961;-84
2022/09/16 11:32:58;;;;;;;6.10;1.30;;;22.70;1.00;;;;;;6084147;23;20453;-83
2022/09/16 11:35:38;;;;;;;6.47;1.67;;;21.50;1.00;;;;;;6084644;23;20505;-81
2022/09/16 11:38:18;;;;;;;6.80;1.67;;;21.10;1.00;;;;;;6084533;23;20437;-83
2022/09/16 11:40:52;;;;;;;6.47;1.43;;;20.40;1.00;;;;;;6081621;23;20830;-82
2022/09/16 11:43:52;;;;;;;5.67;1.60;;;21.40;1.00;;;;;;6079892;23;20456;-83
2022/09/16 11:46:28;;;;;;;5.63;2.00;;;23.00;1.00;;;;;;6078364;23;20493;-82
2022/09/16 11:49:18;;;;;;;8.37;1.53;;;22.30;1.00;;;;;;6055132;23;20485;-81
2022/09/16 11:52:05;;;;;;;5.53;1.50;;;21.30;1.00;;;;;;6078227;23;20418;-80
2022/09/16 11:55:04;;;;;;;7.83;2.03;;;22.70;1.00;;;;;;6076282;23;20501;-81
2022/09/16 11:57:46;;;;;;;5.13;1.13;;;24.00;1.00;;;;;;6076151;23;20390;-83
2022/09/16 12:00:18;;;;;;;6.00;1.33;;;22.90;1.00;;;;;;6063411;23;20444;-81
2022/09/16 12:02:56;;;;;;;8.57;1.43;;;21.50;1.00;;;;;;6073845;23;20413;-82
2022/09/16 12:05:28;;;;;;;11.53;2.37;;;20.70;1.00;;;;;;6061080;23;20820;-79
2022/09/16 12:08:06;;;;;;;5.40;1.60;;;20.80;1.00;;;;;;6077296;23;20400;-80
2022/09/16 12:10:38;;;;;;;7.13;1.40;;;21.70;1.00;;;;;;6075971;23;20481;-80
2022/09/16 12:13:11;;;;;;;5.60;1.27;;;21.20;1.00;;;;;;6077380;23;20389;-80
2022/09/16 12:15:45;;;;;;;6.50;1.40;;;20.60;1.00;;;;;;6075864;23;20870;-80
2022/09/16 12:18:20;;;;;;;5.30;1.10;;;20.30;1.00;;;;;;6074941;23;20449;-82
2022/09/16 12:20:54;;;;;;;9.10;2.10;;;20.90;1.00;;;;;;6074291;23;20469;-81
2022/09/16 12:23:27;;;;;;;8.67;1.70;;;23.60;1.00;;;;;;6076081;23;20385;-80
2022/09/16 12:26:10;;;;;;;5.60;1.60;;;24.70;1.00;;;;;;6076416;23;20410;-79
2022/09/16 12:28:44;;;;;;;6.63;1.87;;;25.60;1.00;;;;;;6073574;23;20472;-79
2022/09/16 12:31:17;;;;;;;9.07;1.20;;;26.70;1.00;;;;;;6077708;23;20424;-81
2022/09/16 12:33:52;;;;;;;5.80;1.10;;;26.60;1.00;;;;;;6077990;23;20438;-81
2022/09/16 12:36:25;;;;;;;10.73;1.80;;;25.90;1.00;;;;;;6077641;23;20420;-81
2022/09/16 12:38:51;;;;;;;4.37;1.10;;;25.70;1.00;;;;;;6078643;23;20421;-80
2022/09/16 12:41:34;;;;;;;4.67;1.23;;;24.70;1.00;;;;;;6073000;23;20452;-81
2022/09/16 12:44:49;;;;;;;7.40;1.43;;;23.80;1.00;;;;;;6077254;23;20408;-82
2022/09/16 12:47:41;;;;;;;6.70;1.20;;;22.70;1.00;;;;;;6075308;23;20418;-81
2022/09/16 12:50:51;;;;;;;10.17;1.80;;;23.90;1.00;;;;;;6075155;23;20430;-79
2022/09/16 12:53:48;;;;;;;4.70;1.07;;;22.30;1.00;;;;;;6074563;23;21069;-81
2022/09/16 12:56:31;;;;;;;5.77;1.20;;;21.40;1.00;;;;;;6075929;23;20418;-80
2022/09/16 12:59:14;;;;;;;4.80;1.30;;;21.40;1.00;;;;;;6077609;23;21077;-83
2022/09/16 13:01:46;;;;;;;10.47;1.83;;;21.50;1.00;;;;;;6070655;23;20389;-82
2022/09/16 13:04:20;;;;;;;6.07;1.03;;;21.50;1.00;;;;;;6074316;23;20414;-81
2022/09/16 13:06:51;;;;;;;8.67;1.70;;;22.60;1.00;;;;;;6073583;23;20496;-81
2022/09/16 13:09:24;;;;;;;7.47;1.60;;;24.80;1.00;;;;;;6075707;23;20448;-81
2022/09/16 13:11:57;;;;;;;6.20;1.40;;;26.40;1.00;;;;;;6073125;23;20432;-81
2022/09/16 13:14:27;;;;;;;5.30;1.47;;;28.20;1.00;;;;;;6060482;23;20856;-81
2022/09/16 13:16:56;;;;;;;7.10;1.63;;;29.20;1.00;;;;;;6075648;23;20476;-79
2022/09/16 13:19:49;;;;;;;5.43;1.23;;;29.30;1.00;;;;;;6076176;23;21182;-78
2022/09/16 13:22:30;;;;;;;5.20;1.73;;;27.00;1.00;;;;;;6076046;23;20429;-80
2022/09/16 13:25:08;;;;;;;4.30;1.10;;;25.40;1.00;;;;;;6074875;23;20409;-81
2022/09/16 13:27:40;;;;;;;9.30;2.10;;;24.20;1.00;;;;;;6076036;23;20401;-82
2022/09/16 13:30:27;;;;;;;7.10;1.60;;;23.20;1.00;;;;;;6067523;23;20436;-82
2022/09/16 13:33:00;;;;;;;4.73;1.30;;;22.40;1.00;;;;;;6081699;23;20381;-81
2022/09/16 13:35:43;;;;;;;9.43;1.80;;;21.70;1.00;;;;;;6076894;23;20469;-81
2022/09/16 13:38:37;;;;;;;5.93;1.50;;;21.20;1.00;;;;;;6080017;23;20409;-81
2022/09/16 13:41:05;;;;;;;6.97;1.77;;;20.70;1.00;;;;;;6042945;23;20505;-81
2022/09/16 13:43:35;;;;;;;7.77;1.63;;;20.50;1.00;;;;;;6079494;23;20409;-80